sensor_id;sensor_type;location;lat;lon;timestamp;P1;durP1;ratioP1;P2;durP2;ratioP2
25988;SDS011;13778;48.236;9.894;2022-10-17T00:02:19;3.92;;;3.40;;
25988;SDS011;13778;48.236;9.894;2022-10-17T00:05:10;8.00;;;3.58;;
25988;SDS011;13778;48.236;9.894;2022-10-17T00:08:00;4.53;;;3.45;;
25988;SDS011;13778;48.236;9.894;2022-10-17T00:10:55;6.95;;;3.75;;
25988;SDS011;13778;48.236;9.894;2022-10-17T00:13:47;4.93;;;3.58;;
25988;SDS011;13778;48.236;9.894;2022-10-17T00:16:38;6.60;;;3.55;;
25988;SDS011;13778;48.236;9.894;2022-10-17T00:19:28;5.18;;;3.10;;
25988;SDS011;13778;48.236;9.894;2022-10-17T00:22:19;7.15;;;3.58;;
25988;SDS011;13778;48.236;9.894;2022-10-17T00:25:09;7.60;;;3.58;;
25988;SDS011;13778;48.236;9.894;2022-10-17T00:28:00;5.90;;;3.05;;
25988;SDS011;13778;48.236;9.894;2022-10-17T00:30:55;8.48;;;4.07;;
25988;SDS011;13778;48.236;9.894;2022-10-17T00:33:46;3.65;;;3.35;;
25988;SDS011;13778;48.236;9.894;2022-10-17T00:36:36;7.38;;;3.67;;
25988;SDS011;13778;48.236;9.894;2022-10-17T00:39:27;7.78;;;3.95;;
25988;SDS011;13778;48.236;9.894;2022-10-17T00:42:17;11.23;;;4.38;;
25988;SDS011;13778;48.236;9.894;2022-10-17T00:45:16;4.03;;;3.42;;
25988;SDS011;13778;48.236;9.894;2022-10-17T00:48:08;4.65;;;3.90;;
25988;SDS011;13778;48.236;9.894;2022-10-17T00:51:00;9.88;;;3.95;;
25988;SDS011;13778;48.236;9.894;2022-10-17T00:53:50;5.20;;;3.65;;
25988;SDS011;13778;48.236;9.894;2022-10-17T00:56:41;7.82;;;3.92;;
25988;SDS011;13778;48.236;9.894;2022-10-17T00:59:31;6.35;;;3.50;;
25988;SDS011;13778;48.236;9.894;2022-10-17T01:02:22;9.63;;;4.35;;
25988;SDS011;13778;48.236;9.894;2022-10-17T01:05:14;9.32;;;3.60;;
25988;SDS011;13778;48.236;9.894;2022-10-17T01:10:57;7.75;;;3.70;;
25988;SDS011;13778;48.236;9.894;2022-10-17T01:13:50;8.43;;;3.67;;
25988;SDS011;13778;48.236;9.894;2022-10-17T01:16:44;5.85;;;3.58;;
25988;SDS011;13778;48.236;9.894;2022-10-17T01:19:45;11.40;;;3.75;;
25988;SDS011;13778;48.236;9.894;2022-10-17T01:22:43;5.13;;;3.42;;
25988;SDS011;13778;48.236;9.894;2022-10-17T01:25:38;5.53;;;3.55;;
25988;SDS011;13778;48.236;9.894;2022-10-17T01:28:41;8.32;;;3.88;;
25988;SDS011;13778;48.236;9.894;2022-10-17T01:31:36;6.72;;;4.00;;
25988;SDS011;13778;48.236;9.894;2022-10-17T01:34:28;8.35;;;4.03;;
25988;SDS011;13778;48.236;9.894;2022-10-17T01:37:20;8.13;;;4.55;;
25988;SDS011;13778;48.236;9.894;2022-10-17T01:40:16;10.45;;;5.28;;
25988;SDS011;13778;48.236;9.894;2022-10-17T01:43:08;8.93;;;4.95;;
25988;SDS011;13778;48.236;9.894;2022-10-17T01:46:01;9.85;;;4.22;;
25988;SDS011;13778;48.236;9.894;2022-10-17T01:48:55;10.07;;;4.80;;
25988;SDS011;13778;48.236;9.894;2022-10-17T01:51:47;12.30;;;4.15;;
25988;SDS011;13778;48.236;9.894;2022-10-17T01:57:29;13.32;;;5.00;;
25988;SDS011;13778;48.236;9.894;2022-10-17T02:00:22;5.90;;;3.95;;
25988;SDS011;13778;48.236;9.894;2022-10-17T02:03:15;13.93;;;4.10;;
25988;SDS011;13778;48.236;9.894;2022-10-17T02:06:08;9.40;;;4.28;;
25988;SDS011;13778;48.236;9.894;2022-10-17T02:08:58;6.63;;;4.35;;
25988;SDS011;13778;48.236;9.894;2022-10-17T02:11:51;7.75;;;3.80;;
25988;SDS011;13778;48.236;9.894;2022-10-17T02:14:45;10.23;;;4.20;;
25988;SDS011;13778;48.236;9.894;2022-10-17T02:17:41;7.95;;;3.60;;
25988;SDS011;13778;48.236;9.894;2022-10-17T02:20:34;6.30;;;4.13;;
25988;SDS011;13778;48.236;9.894;2022-10-17T02:23:29;10.75;;;3.80;;
25988;SDS011;13778;48.236;9.894;2022-10-17T02:26:24;11.15;;;4.07;;
25988;SDS011;13778;48.236;9.894;2022-10-17T02:29:15;6.10;;;3.15;;
25988;SDS011;13778;48.236;9.894;2022-10-17T02:32:07;6.82;;;2.90;;
25988;SDS011;13778;48.236;9.894;2022-10-17T02:35:00;4.90;;;2.83;;
25988;SDS011;13778;48.236;9.894;2022-10-17T02:37:51;6.78;;;3.05;;
25988;SDS011;13778;48.236;9.894;2022-10-17T02:40:43;3.38;;;2.63;;
25988;SDS011;13778;48.236;9.894;2022-10-17T02:43:35;6.07;;;2.85;;
25988;SDS011;13778;48.236;9.894;2022-10-17T02:46:26;5.45;;;2.33;;
25988;SDS011;13778;48.236;9.894;2022-10-17T02:49:18;4.53;;;2.80;;
25988;SDS011;13778;48.236;9.894;2022-10-17T02:52:11;6.00;;;2.80;;
25988;SDS011;13778;48.236;9.894;2022-10-17T02:55:02;12.70;;;3.35;;
25988;SDS011;13778;48.236;9.894;2022-10-17T02:57:56;8.43;;;3.30;;
25988;SDS011;13778;48.236;9.894;2022-10-17T03:00:48;11.48;;;3.45;;
25988;SDS011;13778;48.236;9.894;2022-10-17T03:03:39;6.03;;;3.05;;
25988;SDS011;13778;48.236;9.894;2022-10-17T03:06:30;8.02;;;3.35;;
25988;SDS011;13778;48.236;9.894;2022-10-17T03:09:20;9.00;;;2.90;;
25988;SDS011;13778;48.236;9.894;2022-10-17T03:12:11;9.43;;;3.13;;
25988;SDS011;13778;48.236;9.894;2022-10-17T03:15:03;6.20;;;2.53;;
25988;SDS011;13778;48.236;9.894;2022-10-17T03:17:54;4.40;;;2.30;;
25988;SDS011;13778;48.236;9.894;2022-10-17T03:20:44;5.70;;;3.25;;
25988;SDS011;13778;48.236;9.894;2022-10-17T03:23:35;9.38;;;3.55;;
25988;SDS011;13778;48.236;9.894;2022-10-17T03:26:25;9.23;;;3.80;;
25988;SDS011;13778;48.236;9.894;2022-10-17T03:29:17;9.27;;;3.90;;
25988;SDS011;13778;48.236;9.894;2022-10-17T03:32:09;11.60;;;4.38;;
25988;SDS011;13778;48.236;9.894;2022-10-17T03:35:00;12.18;;;5.13;;
25988;SDS011;13778;48.236;9.894;2022-10-17T03:37:51;10.68;;;3.78;;
25988;SDS011;13778;48.236;9.894;2022-10-17T03:40:41;14.60;;;5.07;;
25988;SDS011;13778;48.236;9.894;2022-10-17T03:43:31;12.75;;;5.10;;
25988;SDS011;13778;48.236;9.894;2022-10-17T03:46:22;14.30;;;4.55;;
25988;SDS011;13778;48.236;9.894;2022-10-17T03:49:14;10.32;;;4.10;;
25988;SDS011;13778;48.236;9.894;2022-10-17T03:52:04;7.20;;;4.15;;
25988;SDS011;13778;48.236;9.894;2022-10-17T03:54:55;8.10;;;3.97;;
25988;SDS011;13778;48.236;9.894;2022-10-17T03:57:45;9.05;;;4.57;;
25988;SDS011;13778;48.236;9.894;2022-10-17T04:00:36;9.20;;;5.28;;
25988;SDS011;13778;48.236;9.894;2022-10-17T04:03:26;10.63;;;4.80;;
25988;SDS011;13778;48.236;9.894;2022-10-17T04:06:18;8.30;;;4.57;;
25988;SDS011;13778;48.236;9.894;2022-10-17T04:09:09;10.82;;;4.45;;
25988;SDS011;13778;48.236;9.894;2022-10-17T04:12:00;15.25;;;4.95;;
25988;SDS011;13778;48.236;9.894;2022-10-17T04:14:50;16.13;;;5.07;;
25988;SDS011;13778;48.236;9.894;2022-10-17T04:17:41;16.10;;;3.97;;
25988;SDS011;13778;48.236;9.894;2022-10-17T04:20:33;20.65;;;3.90;;
25988;SDS011;13778;48.236;9.894;2022-10-17T04:23:24;17.90;;;4.90;;
25988;SDS011;13778;48.236;9.894;2022-10-17T04:26:15;19.48;;;4.05;;
25988;SDS011;13778;48.236;9.894;2022-10-17T04:29:06;8.73;;;4.00;;
25988;SDS011;13778;48.236;9.894;2022-10-17T04:31:56;16.60;;;3.88;;
25988;SDS011;13778;48.236;9.894;2022-10-17T04:34:47;6.63;;;3.75;;
25988;SDS011;13778;48.236;9.894;2022-10-17T04:37:37;8.70;;;4.45;;
25988;SDS011;13778;48.236;9.894;2022-10-17T04:40:29;8.00;;;3.20;;
25988;SDS011;13778;48.236;9.894;2022-10-17T04:43:19;3.35;;;2.72;;
25988;SDS011;13778;48.236;9.894;2022-10-17T04:46:10;7.40;;;2.78;;
25988;SDS011;13778;48.236;9.894;2022-10-17T04:49:01;4.32;;;3.33;;
25988;SDS011;13778;48.236;9.894;2022-10-17T04:51:52;4.95;;;3.08;;
25988;SDS011;13778;48.236;9.894;2022-10-17T04:54:42;6.45;;;2.90;;
25988;SDS011;13778;48.236;9.894;2022-10-17T04:57:34;5.43;;;3.13;;
25988;SDS011;13778;48.236;9.894;2022-10-17T05:00:24;16.30;;;3.92;;
25988;SDS011;13778;48.236;9.894;2022-10-17T05:03:15;6.25;;;2.92;;
25988;SDS011;13778;48.236;9.894;2022-10-17T05:06:06;11.15;;;3.33;;
25988;SDS011;13778;48.236;9.894;2022-10-17T05:08:56;6.77;;;4.23;;
25988;SDS011;13778;48.236;9.894;2022-10-17T05:11:47;7.85;;;3.30;;
25988;SDS011;13778;48.236;9.894;2022-10-17T05:14:39;3.40;;;2.97;;
25988;SDS011;13778;48.236;9.894;2022-10-17T05:17:29;8.88;;;3.10;;
25988;SDS011;13778;48.236;9.894;2022-10-17T05:20:20;5.40;;;3.58;;
25988;SDS011;13778;48.236;9.894;2022-10-17T05:23:10;5.18;;;3.75;;
25988;SDS011;13778;48.236;9.894;2022-10-17T05:26:01;15.50;;;4.15;;
25988;SDS011;13778;48.236;9.894;2022-10-17T05:28:51;50.63;;;5.72;;
25988;SDS011;13778;48.236;9.894;2022-10-17T05:31:44;25.45;;;4.60;;
25988;SDS011;13778;48.236;9.894;2022-10-17T05:34:34;23.42;;;4.63;;
25988;SDS011;13778;48.236;9.894;2022-10-17T05:37:25;5.22;;;3.65;;
25988;SDS011;13778;48.236;9.894;2022-10-17T05:40:15;6.07;;;3.95;;
25988;SDS011;13778;48.236;9.894;2022-10-17T05:43:06;8.85;;;4.32;;
25988;SDS011;13778;48.236;9.894;2022-10-17T05:45:56;7.28;;;4.32;;
25988;SDS011;13778;48.236;9.894;2022-10-17T05:48:48;7.75;;;4.57;;
25988;SDS011;13778;48.236;9.894;2022-10-17T05:51:39;12.43;;;4.10;;
25988;SDS011;13778;48.236;9.894;2022-10-17T05:54:29;18.02;;;3.65;;
25988;SDS011;13778;48.236;9.894;2022-10-17T05:57:19;39.15;;;4.93;;
25988;SDS011;13778;48.236;9.894;2022-10-17T06:00:10;43.00;;;4.07;;
25988;SDS011;13778;48.236;9.894;2022-10-17T06:03:00;50.80;;;4.78;;
25988;SDS011;13778;48.236;9.894;2022-10-17T06:05:52;67.25;;;5.28;;
25988;SDS011;13778;48.236;9.894;2022-10-17T06:08:43;57.17;;;5.15;;
25988;SDS011;13778;48.236;9.894;2022-10-17T06:11:33;50.58;;;4.72;;
25988;SDS011;13778;48.236;9.894;2022-10-17T06:14:24;64.43;;;5.57;;
25988;SDS011;13778;48.236;9.894;2022-10-17T06:17:14;14.45;;;4.38;;
25988;SDS011;13778;48.236;9.894;2022-10-17T06:20:05;7.30;;;3.80;;
25988;SDS011;13778;48.236;9.894;2022-10-17T06:22:57;12.10;;;4.47;;
25988;SDS011;13778;48.236;9.894;2022-10-17T06:28:38;6.68;;;3.83;;
25988;SDS011;13778;48.236;9.894;2022-10-17T06:31:28;13.43;;;3.92;;
25988;SDS011;13778;48.236;9.894;2022-10-17T06:34:19;8.13;;;3.88;;
25988;SDS011;13778;48.236;9.894;2022-10-17T06:37:09;14.07;;;4.68;;
25988;SDS011;13778;48.236;9.894;2022-10-17T06:40:01;8.25;;;4.45;;
25988;SDS011;13778;48.236;9.894;2022-10-17T06:42:51;12.95;;;4.93;;
25988;SDS011;13778;48.236;9.894;2022-10-17T06:45:42;7.07;;;3.78;;
25988;SDS011;13778;48.236;9.894;2022-10-17T06:48:34;8.32;;;4.30;;
25988;SDS011;13778;48.236;9.894;2022-10-17T06:51:24;13.65;;;4.97;;
25988;SDS011;13778;48.236;9.894;2022-10-17T06:54:15;7.13;;;4.88;;
25988;SDS011;13778;48.236;9.894;2022-10-17T06:57:07;12.70;;;7.38;;
25988;SDS011;13778;48.236;9.894;2022-10-17T06:59:57;22.40;;;9.55;;
25988;SDS011;13778;48.236;9.894;2022-10-17T07:02:48;13.30;;;7.90;;
25988;SDS011;13778;48.236;9.894;2022-10-17T07:05:39;17.67;;;8.48;;
25988;SDS011;13778;48.236;9.894;2022-10-17T07:08:29;16.52;;;7.20;;
25988;SDS011;13778;48.236;9.894;2022-10-17T07:11:20;18.63;;;6.78;;
25988;SDS011;13778;48.236;9.894;2022-10-17T07:14:12;16.20;;;6.80;;
25988;SDS011;13778;48.236;9.894;2022-10-17T07:17:03;12.23;;;6.05;;
25988;SDS011;13778;48.236;9.894;2022-10-17T07:19:53;11.60;;;6.43;;
25988;SDS011;13778;48.236;9.894;2022-10-17T07:22:44;12.27;;;6.47;;
25988;SDS011;13778;48.236;9.894;2022-10-17T07:25:35;14.65;;;6.60;;
25988;SDS011;13778;48.236;9.894;2022-10-17T07:28:25;55.00;;;7.17;;
25988;SDS011;13778;48.236;9.894;2022-10-17T07:31:17;14.95;;;5.85;;
25988;SDS011;13778;48.236;9.894;2022-10-17T07:34:08;13.50;;;5.90;;
25988;SDS011;13778;48.236;9.894;2022-10-17T07:36:58;9.20;;;5.57;;
25988;SDS011;13778;48.236;9.894;2022-10-17T07:39:49;10.55;;;6.15;;
25988;SDS011;13778;48.236;9.894;2022-10-17T07:42:39;6.00;;;4.63;;
25988;SDS011;13778;48.236;9.894;2022-10-17T07:45:30;8.63;;;4.65;;
25988;SDS011;13778;48.236;9.894;2022-10-17T07:48:22;10.57;;;5.35;;
25988;SDS011;13778;48.236;9.894;2022-10-17T07:51:13;10.52;;;4.55;;
25988;SDS011;13778;48.236;9.894;2022-10-17T07:54:03;5.68;;;3.65;;
25988;SDS011;13778;48.236;9.894;2022-10-17T07:56:54;6.82;;;4.10;;
25988;SDS011;13778;48.236;9.894;2022-10-17T07:59:44;9.90;;;4.30;;
25988;SDS011;13778;48.236;9.894;2022-10-17T08:02:36;5.93;;;3.58;;
25988;SDS011;13778;48.236;9.894;2022-10-17T08:05:28;4.07;;;3.28;;
25988;SDS011;13778;48.236;9.894;2022-10-17T08:08:19;3.60;;;3.22;;
25988;SDS011;13778;48.236;9.894;2022-10-17T08:11:11;3.80;;;3.17;;
25988;SDS011;13778;48.236;9.894;2022-10-17T08:16:52;9.15;;;3.22;;
25988;SDS011;13778;48.236;9.894;2022-10-17T08:19:43;7.43;;;3.20;;
25988;SDS011;13778;48.236;9.894;2022-10-17T08:22:35;5.45;;;2.63;;
25988;SDS011;13778;48.236;9.894;2022-10-17T08:25:25;5.88;;;3.17;;
25988;SDS011;13778;48.236;9.894;2022-10-17T08:28:16;3.25;;;2.60;;
25988;SDS011;13778;48.236;9.894;2022-10-17T08:31:07;3.38;;;3.08;;
25988;SDS011;13778;48.236;9.894;2022-10-17T08:33:58;3.90;;;3.27;;
25988;SDS011;13778;48.236;9.894;2022-10-17T08:36:48;3.20;;;2.90;;
25988;SDS011;13778;48.236;9.894;2022-10-17T08:39:40;3.85;;;3.10;;
25988;SDS011;13778;48.236;9.894;2022-10-17T08:42:41;4.85;;;3.20;;
25988;SDS011;13778;48.236;9.894;2022-10-17T08:45:35;5.70;;;2.88;;
25988;SDS011;13778;48.236;9.894;2022-10-17T08:48:29;4.22;;;3.10;;
25988;SDS011;13778;48.236;9.894;2022-10-17T08:54:11;4.35;;;3.15;;
25988;SDS011;13778;48.236;9.894;2022-10-17T08:57:03;5.97;;;3.40;;
25988;SDS011;13778;48.236;9.894;2022-10-17T08:59:54;6.38;;;4.03;;
25988;SDS011;13778;48.236;9.894;2022-10-17T09:02:49;11.52;;;3.72;;
25988;SDS011;13778;48.236;9.894;2022-10-17T09:05:45;10.80;;;3.55;;
25988;SDS011;13778;48.236;9.894;2022-10-17T09:08:39;11.27;;;3.70;;
25988;SDS011;13778;48.236;9.894;2022-10-17T09:11:36;8.38;;;3.75;;
25988;SDS011;13778;48.236;9.894;2022-10-17T09:14:37;4.40;;;4.00;;
25988;SDS011;13778;48.236;9.894;2022-10-17T09:17:37;4.28;;;3.45;;
25988;SDS011;13778;48.236;9.894;2022-10-17T09:20:30;8.73;;;3.92;;
25988;SDS011;13778;48.236;9.894;2022-10-17T09:23:21;7.90;;;3.78;;
25988;SDS011;13778;48.236;9.894;2022-10-17T09:26:12;8.63;;;3.92;;
25988;SDS011;13778;48.236;9.894;2022-10-17T09:29:04;8.32;;;4.15;;
25988;SDS011;13778;48.236;9.894;2022-10-17T09:32:01;6.68;;;3.97;;
25988;SDS011;13778;48.236;9.894;2022-10-17T09:34:52;7.13;;;4.18;;
25988;SDS011;13778;48.236;9.894;2022-10-17T09:37:43;9.70;;;3.90;;
25988;SDS011;13778;48.236;9.894;2022-10-17T09:40:34;8.33;;;4.10;;
25988;SDS011;13778;48.236;9.894;2022-10-17T09:43:24;5.22;;;3.90;;
25988;SDS011;13778;48.236;9.894;2022-10-17T09:46:16;9.15;;;4.38;;
25988;SDS011;13778;48.236;9.894;2022-10-17T09:49:11;5.07;;;3.22;;
25988;SDS011;13778;48.236;9.894;2022-10-17T09:52:04;4.13;;;3.72;;
25988;SDS011;13778;48.236;9.894;2022-10-17T09:54:56;7.20;;;3.65;;
25988;SDS011;13778;48.236;9.894;2022-10-17T09:57:52;6.38;;;4.03;;
25988;SDS011;13778;48.236;9.894;2022-10-17T10:00:44;8.70;;;3.67;;
25988;SDS011;13778;48.236;9.894;2022-10-17T10:03:34;5.60;;;4.13;;
25988;SDS011;13778;48.236;9.894;2022-10-17T10:06:26;3.58;;;3.28;;
25988;SDS011;13778;48.236;9.894;2022-10-17T10:12:14;5.95;;;3.33;;
25988;SDS011;13778;48.236;9.894;2022-10-17T10:18:33;4.95;;;2.55;;
25988;SDS011;13778;48.236;9.894;2022-10-17T10:21:25;3.78;;;3.30;;
25988;SDS011;13778;48.236;9.894;2022-10-17T10:24:17;7.63;;;2.70;;
25988;SDS011;13778;48.236;9.894;2022-10-17T10:27:10;5.25;;;3.10;;
25988;SDS011;13778;48.236;9.894;2022-10-17T10:30:02;7.53;;;3.47;;
25988;SDS011;13778;48.236;9.894;2022-10-17T10:32:53;3.67;;;2.53;;
25988;SDS011;13778;48.236;9.894;2022-10-17T10:35:51;6.13;;;3.05;;
25988;SDS011;13778;48.236;9.894;2022-10-17T10:38:49;3.88;;;2.67;;
25988;SDS011;13778;48.236;9.894;2022-10-17T10:41:46;3.75;;;2.80;;
25988;SDS011;13778;48.236;9.894;2022-10-17T10:44:37;7.35;;;2.70;;
25988;SDS011;13778;48.236;9.894;2022-10-17T10:47:30;5.85;;;3.03;;
25988;SDS011;13778;48.236;9.894;2022-10-17T10:50:25;4.57;;;2.40;;
25988;SDS011;13778;48.236;9.894;2022-10-17T10:53:24;4.55;;;2.63;;
25988;SDS011;13778;48.236;9.894;2022-10-17T10:56:17;3.05;;;2.50;;
25988;SDS011;13778;48.236;9.894;2022-10-17T11:02:01;5.22;;;2.70;;
25988;SDS011;13778;48.236;9.894;2022-10-17T11:04:54;3.28;;;2.42;;
25988;SDS011;13778;48.236;9.894;2022-10-17T11:07:48;5.40;;;2.65;;
25988;SDS011;13778;48.236;9.894;2022-10-17T11:10:41;4.45;;;2.20;;
25988;SDS011;13778;48.236;9.894;2022-10-17T11:13:35;3.70;;;2.78;;
25988;SDS011;13778;48.236;9.894;2022-10-17T11:16:28;10.32;;;2.38;;
25988;SDS011;13778;48.236;9.894;2022-10-17T11:19:24;4.55;;;2.47;;
25988;SDS011;13778;48.236;9.894;2022-10-17T11:22:18;4.90;;;2.03;;
25988;SDS011;13778;48.236;9.894;2022-10-17T11:25:15;3.75;;;1.92;;
25988;SDS011;13778;48.236;9.894;2022-10-17T11:28:11;4.10;;;2.38;;
25988;SDS011;13778;48.236;9.894;2022-10-17T11:31:02;3.08;;;2.22;;
25988;SDS011;13778;48.236;9.894;2022-10-17T11:33:55;5.78;;;2.53;;
25988;SDS011;13778;48.236;9.894;2022-10-17T11:36:49;4.38;;;3.05;;
25988;SDS011;13778;48.236;9.894;2022-10-17T11:39:41;4.50;;;2.20;;
25988;SDS011;13778;48.236;9.894;2022-10-17T11:42:37;3.58;;;2.42;;
25988;SDS011;13778;48.236;9.894;2022-10-17T11:45:30;2.78;;;2.15;;
25988;SDS011;13778;48.236;9.894;2022-10-17T11:48:24;3.67;;;2.42;;
25988;SDS011;13778;48.236;9.894;2022-10-17T11:51:15;4.72;;;3.28;;
25988;SDS011;13778;48.236;9.894;2022-10-17T11:54:09;8.38;;;3.38;;
25988;SDS011;13778;48.236;9.894;2022-10-17T11:57:05;8.68;;;3.25;;
25988;SDS011;13778;48.236;9.894;2022-10-17T12:00:03;5.18;;;2.42;;
25988;SDS011;13778;48.236;9.894;2022-10-17T12:02:59;6.50;;;2.30;;
25988;SDS011;13778;48.236;9.894;2022-10-17T12:05:53;6.82;;;2.45;;
25988;SDS011;13778;48.236;9.894;2022-10-17T12:08:47;5.30;;;2.20;;
25988;SDS011;13778;48.236;9.894;2022-10-17T12:11:41;2.60;;;2.40;;
25988;SDS011;13778;48.236;9.894;2022-10-17T12:14:35;4.55;;;2.20;;
25988;SDS011;13778;48.236;9.894;2022-10-17T12:17:27;2.45;;;2.25;;
25988;SDS011;13778;48.236;9.894;2022-10-17T12:23:22;4.47;;;2.72;;
25988;SDS011;13778;48.236;9.894;2022-10-17T12:26:16;6.32;;;2.85;;
25988;SDS011;13778;48.236;9.894;2022-10-17T12:29:21;3.22;;;2.63;;
25988;SDS011;13778;48.236;9.894;2022-10-17T12:32:15;6.00;;;2.30;;
25988;SDS011;13778;48.236;9.894;2022-10-17T12:35:13;3.50;;;2.20;;
25988;SDS011;13778;48.236;9.894;2022-10-17T12:41:16;6.93;;;2.40;;
25988;SDS011;13778;48.236;9.894;2022-10-17T12:44:37;3.10;;;2.10;;
25988;SDS011;13778;48.236;9.894;2022-10-17T12:47:34;2.65;;;2.35;;
25988;SDS011;13778;48.236;9.894;2022-10-17T12:53:36;5.10;;;2.17;;
25988;SDS011;13778;48.236;9.894;2022-10-17T12:56:34;4.65;;;2.42;;
25988;SDS011;13778;48.236;9.894;2022-10-17T12:59:25;3.88;;;2.13;;
25988;SDS011;13778;48.236;9.894;2022-10-17T13:05:10;3.90;;;2.20;;
25988;SDS011;13778;48.236;9.894;2022-10-17T13:08:04;3.92;;;2.22;;
25988;SDS011;13778;48.236;9.894;2022-10-17T13:10:55;5.45;;;2.53;;
25988;SDS011;13778;48.236;9.894;2022-10-17T13:13:46;3.93;;;2.13;;
25988;SDS011;13778;48.236;9.894;2022-10-17T13:16:38;7.50;;;2.83;;
25988;SDS011;13778;48.236;9.894;2022-10-17T13:19:29;4.70;;;2.50;;
25988;SDS011;13778;48.236;9.894;2022-10-17T13:22:22;3.33;;;2.40;;
25988;SDS011;13778;48.236;9.894;2022-10-17T13:25:16;2.45;;;2.13;;
25988;SDS011;13778;48.236;9.894;2022-10-17T13:28:11;4.95;;;2.05;;
25988;SDS011;13778;48.236;9.894;2022-10-17T13:31:01;6.25;;;2.60;;
25988;SDS011;13778;48.236;9.894;2022-10-17T13:33:54;4.38;;;2.28;;
25988;SDS011;13778;48.236;9.894;2022-10-17T13:36:45;5.13;;;2.10;;
25988;SDS011;13778;48.236;9.894;2022-10-17T13:39:39;4.63;;;2.70;;
25988;SDS011;13778;48.236;9.894;2022-10-17T13:42:38;7.00;;;2.67;;
25988;SDS011;13778;48.236;9.894;2022-10-17T13:45:29;3.22;;;2.70;;
25988;SDS011;13778;48.236;9.894;2022-10-17T13:48:21;4.63;;;2.17;;
25988;SDS011;13778;48.236;9.894;2022-10-17T13:51:12;2.30;;;2.10;;
25988;SDS011;13778;48.236;9.894;2022-10-17T13:54:14;3.55;;;2.67;;
25988;SDS011;13778;48.236;9.894;2022-10-17T13:57:15;3.85;;;2.30;;
25988;SDS011;13778;48.236;9.894;2022-10-17T14:00:06;6.68;;;2.70;;
25988;SDS011;13778;48.236;9.894;2022-10-17T14:03:00;2.83;;;2.17;;
25988;SDS011;13778;48.236;9.894;2022-10-17T14:06:01;4.85;;;2.47;;
25988;SDS011;13778;48.236;9.894;2022-10-17T14:08:53;6.22;;;2.70;;
25988;SDS011;13778;48.236;9.894;2022-10-17T14:11:54;6.30;;;1.98;;
25988;SDS011;13778;48.236;9.894;2022-10-17T14:14:47;4.90;;;2.10;;
25988;SDS011;13778;48.236;9.894;2022-10-17T14:17:38;3.03;;;2.30;;
25988;SDS011;13778;48.236;9.894;2022-10-17T14:20:29;5.85;;;2.00;;
25988;SDS011;13778;48.236;9.894;2022-10-17T14:23:27;8.15;;;2.38;;
25988;SDS011;13778;48.236;9.894;2022-10-17T14:26:18;5.35;;;2.50;;
25988;SDS011;13778;48.236;9.894;2022-10-17T14:29:16;3.15;;;2.35;;
25988;SDS011;13778;48.236;9.894;2022-10-17T14:32:12;4.60;;;2.20;;
25988;SDS011;13778;48.236;9.894;2022-10-17T14:35:03;3.72;;;2.20;;
25988;SDS011;13778;48.236;9.894;2022-10-17T14:37:56;3.95;;;2.45;;
25988;SDS011;13778;48.236;9.894;2022-10-17T14:40:48;4.55;;;2.53;;
25988;SDS011;13778;48.236;9.894;2022-10-17T14:43:39;6.28;;;2.83;;
25988;SDS011;13778;48.236;9.894;2022-10-17T14:46:29;4.22;;;2.15;;
25988;SDS011;13778;48.236;9.894;2022-10-17T14:49:22;4.65;;;2.85;;
25988;SDS011;13778;48.236;9.894;2022-10-17T14:52:25;5.45;;;2.08;;
25988;SDS011;13778;48.236;9.894;2022-10-17T14:55:19;3.75;;;2.50;;
25988;SDS011;13778;48.236;9.894;2022-10-17T14:58:16;2.88;;;2.47;;
25988;SDS011;13778;48.236;9.894;2022-10-17T15:01:06;8.27;;;2.70;;
25988;SDS011;13778;48.236;9.894;2022-10-17T15:03:57;7.82;;;2.55;;
25988;SDS011;13778;48.236;9.894;2022-10-17T15:06:53;8.73;;;2.50;;
25988;SDS011;13778;48.236;9.894;2022-10-17T15:09:44;8.50;;;3.40;;
25988;SDS011;13778;48.236;9.894;2022-10-17T15:12:36;11.43;;;2.75;;
25988;SDS011;13778;48.236;9.894;2022-10-17T15:15:26;3.80;;;2.78;;
25988;SDS011;13778;48.236;9.894;2022-10-17T15:18:17;4.15;;;2.20;;
25988;SDS011;13778;48.236;9.894;2022-10-17T15:21:10;2.97;;;2.42;;
25988;SDS011;13778;48.236;9.894;2022-10-17T15:24:02;4.85;;;2.10;;
25988;SDS011;13778;48.236;9.894;2022-10-17T15:26:53;4.32;;;1.85;;
25988;SDS011;13778;48.236;9.894;2022-10-17T15:29:44;2.92;;;2.00;;
25988;SDS011;13778;48.236;9.894;2022-10-17T15:32:35;3.75;;;2.30;;
25988;SDS011;13778;48.236;9.894;2022-10-17T15:35:26;4.80;;;2.20;;
25988;SDS011;13778;48.236;9.894;2022-10-17T15:38:16;3.80;;;2.70;;
25988;SDS011;13778;48.236;9.894;2022-10-17T15:41:09;2.78;;;2.42;;
25988;SDS011;13778;48.236;9.894;2022-10-17T15:43:59;4.20;;;2.60;;
25988;SDS011;13778;48.236;9.894;2022-10-17T15:46:50;7.10;;;2.90;;
25988;SDS011;13778;48.236;9.894;2022-10-17T15:49:40;3.70;;;2.80;;
25988;SDS011;13778;48.236;9.894;2022-10-17T15:52:31;5.82;;;2.90;;
25988;SDS011;13778;48.236;9.894;2022-10-17T15:55:22;4.30;;;2.53;;
25988;SDS011;13778;48.236;9.894;2022-10-17T15:58:14;11.65;;;2.78;;
25988;SDS011;13778;48.236;9.894;2022-10-17T16:01:05;2.75;;;2.40;;
25988;SDS011;13778;48.236;9.894;2022-10-17T16:03:55;3.88;;;2.50;;
25988;SDS011;13778;48.236;9.894;2022-10-17T16:06:46;4.28;;;3.15;;
25988;SDS011;13778;48.236;9.894;2022-10-17T16:09:37;6.95;;;2.85;;
25988;SDS011;13778;48.236;9.894;2022-10-17T16:12:28;4.15;;;2.65;;
25988;SDS011;13778;48.236;9.894;2022-10-17T16:15:21;11.75;;;2.70;;
25988;SDS011;13778;48.236;9.894;2022-10-17T16:18:12;10.45;;;2.67;;
25988;SDS011;13778;48.236;9.894;2022-10-17T16:21:02;5.90;;;2.90;;
25988;SDS011;13778;48.236;9.894;2022-10-17T16:23:53;4.47;;;3.08;;
25988;SDS011;13778;48.236;9.894;2022-10-17T16:26:43;7.43;;;3.05;;
25988;SDS011;13778;48.236;9.894;2022-10-17T16:29:34;6.00;;;2.72;;
25988;SDS011;13778;48.236;9.894;2022-10-17T16:32:25;6.78;;;3.08;;
25988;SDS011;13778;48.236;9.894;2022-10-17T16:35:17;3.65;;;2.20;;
25988;SDS011;13778;48.236;9.894;2022-10-17T16:40:58;11.05;;;2.75;;
25988;SDS011;13778;48.236;9.894;2022-10-17T16:43:48;9.57;;;2.42;;
25988;SDS011;13778;48.236;9.894;2022-10-17T16:46:39;6.13;;;2.57;;
25988;SDS011;13778;48.236;9.894;2022-10-17T16:49:31;5.40;;;2.47;;
25988;SDS011;13778;48.236;9.894;2022-10-17T16:52:22;7.10;;;2.83;;
25988;SDS011;13778;48.236;9.894;2022-10-17T16:55:12;7.53;;;2.92;;
25988;SDS011;13778;48.236;9.894;2022-10-17T16:58:02;5.05;;;2.92;;
25988;SDS011;13778;48.236;9.894;2022-10-17T17:00:53;7.15;;;2.90;;
25988;SDS011;13778;48.236;9.894;2022-10-17T17:03:44;10.82;;;3.10;;
25988;SDS011;13778;48.236;9.894;2022-10-17T17:06:36;9.23;;;3.03;;
25988;SDS011;13778;48.236;9.894;2022-10-17T17:09:26;4.68;;;2.80;;
25988;SDS011;13778;48.236;9.894;2022-10-17T17:12:16;7.43;;;3.55;;
25988;SDS011;13778;48.236;9.894;2022-10-17T17:15:07;6.57;;;2.85;;
25988;SDS011;13778;48.236;9.894;2022-10-17T17:17:57;5.15;;;2.78;;
25988;SDS011;13778;48.236;9.894;2022-10-17T17:20:48;3.40;;;3.10;;
25988;SDS011;13778;48.236;9.894;2022-10-17T17:23:40;7.18;;;3.35;;
25988;SDS011;13778;48.236;9.894;2022-10-17T17:26:32;6.03;;;3.95;;
25988;SDS011;13778;48.236;9.894;2022-10-17T17:29:24;7.43;;;4.00;;
25988;SDS011;13778;48.236;9.894;2022-10-17T17:32:14;7.78;;;3.45;;
25988;SDS011;13778;48.236;9.894;2022-10-17T17:35:05;5.70;;;3.50;;
25988;SDS011;13778;48.236;9.894;2022-10-17T17:37:56;7.88;;;3.55;;
25988;SDS011;13778;48.236;9.894;2022-10-17T17:40:48;8.93;;;3.10;;
25988;SDS011;13778;48.236;9.894;2022-10-17T17:43:38;7.78;;;3.88;;
25988;SDS011;13778;48.236;9.894;2022-10-17T17:46:29;9.40;;;4.10;;
25988;SDS011;13778;48.236;9.894;2022-10-17T17:49:20;11.10;;;3.75;;
25988;SDS011;13778;48.236;9.894;2022-10-17T17:52:11;10.20;;;3.78;;
25988;SDS011;13778;48.236;9.894;2022-10-17T17:55:01;6.63;;;3.42;;